Time;durP1;ratioP1;P1;durP2;ratioP2;P2;SDS_P1;SDS_P2;PMS_P1;PMS_P2;Temp;Humidity;BMP_temperature;BMP_pressure;BME280_temperature;BME280_humidity;BME280_pressure;Samples;Min_cycle;Max_cycle;Signal;HPM_P1;HPM_P2
2022/11/22 00:02:14;;;;;;;9.07;4.93;;;;;;;5.15;100.00;94399.31;5056605;28;20583;-70
2022/11/22 00:04:41;;;;;;;11.13;4.70;;;;;;;5.21;100.00;94393.34;5056544;28;20200;-72
2022/11/22 00:07:08;;;;;;;9.47;4.53;;;;;;;5.26;100.00;94393.59;5056546;28;20566;-71
2022/11/22 00:09:35;;;;;;;8.37;4.03;;;;;;;5.29;100.00;94384.56;5056701;28;20279;-70
2022/11/22 00:12:02;;;;;;;10.47;3.60;;;;;;;5.20;100.00;94370.06;5056385;28;20204;-71
2022/11/22 00:14:28;;;;;;;6.50;3.87;;;;;;;5.23;100.00;94373.09;5056434;28;20205;-70
2022/11/22 00:16:55;;;;;;;12.00;3.53;;;;;;;5.29;100.00;94361.06;5056727;28;20213;-70
2022/11/22 00:19:21;;;;;;;8.53;3.40;;;;;;;5.32;100.00;94363.28;5059497;28;20238;-71
2022/11/22 00:21:48;;;;;;;6.63;3.60;;;;;;;5.22;100.00;94365.44;5072071;28;20219;-71
2022/11/22 00:24:15;;;;;;;13.07;3.87;;;;;;;5.26;100.00;94364.88;5068112;28;20196;-71
2022/11/22 00:26:42;;;;;;;7.17;3.30;;;;;;;5.37;100.00;94356.50;5069381;28;20196;-71
2022/11/22 00:29:09;;;;;;;6.30;3.47;;;;;;;5.31;100.00;94370.34;5059253;28;20232;-70
2022/11/22 00:31:36;;;;;;;9.47;3.90;;;;;;;5.27;100.00;94358.66;5058290;28;20196;-70
2022/11/22 00:34:02;;;;;;;9.77;3.90;;;;;;;5.27;100.00;94361.28;5059451;28;20704;-70
2022/11/22 00:36:29;;;;;;;7.30;3.60;;;;;;;5.34;100.00;94361.31;5059960;28;20212;-72
2022/11/22 00:38:55;;;;;;;8.23;4.20;;;;;;;5.40;100.00;94363.97;5060143;28;20225;-70
2022/11/22 00:41:22;;;;;;;7.57;3.47;;;;;;;5.25;100.00;94370.28;5062076;28;20249;-71
2022/11/22 00:43:49;;;;;;;4.90;3.03;;;;;;;5.33;100.00;94370.94;5063179;28;20201;-72
2022/11/22 00:46:16;;;;;;;6.73;3.93;;;;;;;5.22;100.00;94371.47;5060068;28;20201;-71
2022/11/22 00:48:42;;;;;;;6.97;3.70;;;;;;;5.32;100.00;94368.50;5059731;28;20224;-70
2022/11/22 00:51:09;;;;;;;7.27;4.00;;;;;;;5.37;100.00;94366.94;5061683;28;20205;-71
2022/11/22 00:53:35;;;;;;;9.17;4.07;;;;;;;5.43;100.00;94374.03;5064335;28;20212;-72
2022/11/22 00:56:02;;;;;;;7.60;4.50;;;;;;;5.38;100.00;94376.41;5061259;28;20571;-71
2022/11/22 00:58:28;;;;;;;8.57;4.27;;;;;;;5.37;100.00;94372.16;5066475;28;20228;-71
2022/11/22 01:00:56;;;;;;;6.40;3.60;;;;;;;5.48;100.00;94369.84;5059419;28;20219;-72
2022/11/22 01:03:22;;;;;;;11.53;4.40;;;;;;;5.43;100.00;94372.22;5059286;28;20254;-71
2022/11/22 01:05:49;;;;;;;5.43;3.30;;;;;;;5.33;100.00;94380.59;5061498;28;20204;-72
2022/11/22 01:08:15;;;;;;;12.83;3.70;;;;;;;5.34;100.00;94377.78;5058866;28;20228;-71
2022/11/22 01:10:42;;;;;;;6.03;3.40;;;;;;;5.39;100.00;94383.25;5059695;28;20209;-71
2022/11/22 01:13:11;;;;;;;8.40;3.97;;;;;;;5.43;100.00;94380.06;5058882;28;20577;-72
2022/11/22 01:15:38;;;;;;;7.50;3.13;;;;;;;5.40;100.00;94392.69;5059274;28;20200;-72
2022/11/22 01:18:06;;;;;;;8.07;3.67;;;;;;;5.47;100.00;94390.91;5059176;28;20708;-71
2022/11/22 01:20:32;;;;;;;6.37;3.27;;;;;;;5.43;100.00;94387.06;5059321;28;20220;-71
2022/11/22 01:22:59;;;;;;;8.40;3.60;;;;;;;5.46;100.00;94381.50;5057969;28;20594;-71
2022/11/22 01:25:25;;;;;;;6.47;3.10;;;;;;;5.46;100.00;94386.72;5059937;28;20204;-71
2022/11/22 01:27:52;;;;;;;11.97;3.97;;;;;;;5.33;100.00;94397.03;5059077;28;20231;-71
2022/11/22 01:30:19;;;;;;;7.70;3.00;;;;;;;5.39;100.00;94390.28;5058412;28;20669;-72
2022/11/22 01:32:46;;;;;;;6.87;3.37;;;;;;;5.38;100.00;94386.84;5055217;28;20213;-70
2022/11/22 01:35:14;;;;;;;6.53;3.27;;;;;;;5.48;100.00;94384.69;5062293;28;20216;-71
2022/11/22 01:37:40;;;;;;;8.40;3.37;;;;;;;5.44;100.00;94383.47;5063517;28;20950;-71
2022/11/22 01:40:10;;;;;;;6.70;3.70;;;;;;;5.43;100.00;94382.69;5066539;28;20208;-72
2022/11/22 01:42:43;;;;;;;7.10;3.20;;;;;;;5.51;100.00;94384.31;5064051;28;20270;-72
2022/11/22 01:45:42;;;;;;;4.97;2.70;;;;;;;5.48;100.00;94382.88;5058861;28;20701;-70
2022/11/22 01:48:19;;;;;;;7.10;3.00;;;;;;;5.50;100.00;94374.88;4995712;28;20378;-72
2022/11/22 01:50:51;;;;;;;6.37;3.10;;;;;;;5.51;100.00;94381.69;5049477;28;20224;-70
2022/11/22 01:53:28;;;;;;;5.23;2.90;;;;;;;5.58;100.00;94390.41;5057859;28;20287;-71
2022/11/22 01:55:57;;;;;;;6.23;2.77;;;;;;;5.57;100.00;94380.94;5058443;28;20297;-72
2022/11/22 01:58:26;;;;;;;5.47;2.80;;;;;;;5.58;100.00;94387.78;5058477;28;20227;-71
2022/11/22 02:00:53;;;;;;;3.87;2.83;;;;;;;5.61;100.00;94390.84;5058643;28;20223;-71
2022/11/22 02:03:21;;;;;;;7.60;3.33;;;;;;;5.53;100.00;94382.31;5057558;28;20669;-71
2022/11/22 02:05:50;;;;;;;4.97;3.03;;;;;;;5.60;100.00;94388.38;5058730;28;20209;-72
2022/11/22 02:08:22;;;;;;;6.17;3.03;;;;;;;5.61;100.00;94385.63;5058005;28;20273;-71
2022/11/22 02:10:52;;;;;;;6.97;3.30;;;;;;;5.64;100.00;94382.59;5058408;28;20204;-71
2022/11/22 02:13:22;;;;;;;6.20;3.23;;;;;;;5.60;100.00;94388.38;5057840;28;20741;-72
2022/11/22 02:15:49;;;;;;;5.17;3.20;;;;;;;5.69;100.00;94388.06;5058126;28;20204;-73
2022/11/22 02:18:16;;;;;;;7.73;3.30;;;;;;;5.71;100.00;94382.63;5057867;28;20223;-71
2022/11/22 02:20:42;;;;;;;7.00;3.50;;;;;;;5.75;100.00;94384.69;5065974;28;20727;-71
2022/11/22 02:23:17;;;;;;;7.23;3.13;;;;;;;5.71;100.00;94387.88;5057167;28;20441;-70
2022/11/22 02:25:51;;;;;;;8.13;3.50;;;;;;;5.84;100.00;94390.59;5066264;28;20200;-70
2022/11/22 02:28:17;;;;;;;5.10;2.97;;;;;;;5.80;100.00;94395.38;5057472;28;20225;-72
2022/11/22 02:30:44;;;;;;;4.93;2.90;;;;;;;5.84;100.00;94411.50;5054649;28;20211;-72
2022/11/22 02:33:11;;;;;;;7.87;2.63;;;;;;;5.92;100.00;94419.16;5057359;28;20207;-71
2022/11/22 02:35:37;;;;;;;8.63;3.40;;;;;;;5.96;100.00;94426.44;5067537;28;20211;-71
2022/11/22 02:38:06;;;;;;;8.33;3.20;;;;;;;5.99;100.00;94430.47;5059866;28;20712;-71
2022/11/22 02:40:37;;;;;;;7.83;3.10;;;;;;;6.03;100.00;94423.88;5057753;28;20197;-72
2022/11/22 02:43:10;;;;;;;6.73;3.40;;;;;;;6.03;100.00;94424.66;5057089;28;20204;-71
2022/11/22 02:45:37;;;;;;;9.50;3.37;;;;;;;5.95;100.00;94419.59;5058549;28;20204;-71
2022/11/22 02:48:08;;;;;;;9.67;3.50;;;;;;;6.09;100.00;94419.47;5064219;28;20232;-72
2022/11/22 02:50:34;;;;;;;11.43;3.27;;;;;;;6.04;100.00;94425.47;5056882;28;20392;-72
2022/11/22 02:53:01;;;;;;;10.53;3.67;;;;;;;6.07;100.00;94431.13;5057667;28;20200;-71
2022/11/22 02:55:28;;;;;;;7.00;3.07;;;;;;;6.09;100.00;94429.13;5071003;28;20201;-71
2022/11/22 02:57:54;;;;;;;8.97;3.90;;;;;;;6.05;100.00;94430.50;5057177;28;20243;-71
2022/11/22 03:00:23;;;;;;;7.43;3.40;;;;;;;6.11;100.00;94434.97;5057552;28;20196;-71
2022/11/22 03:02:50;;;;;;;7.87;3.23;;;;;;;6.13;100.00;94446.03;5061092;28;20234;-71
2022/11/22 03:05:16;;;;;;;5.37;3.30;;;;;;;6.10;100.00;94431.53;5056600;28;20205;-71
2022/11/22 03:07:43;;;;;;;4.93;2.90;;;;;;;6.05;100.00;94426.09;5057287;28;20204;-72
2022/11/22 03:10:10;;;;;;;7.03;3.57;;;;;;;6.07;100.00;94431.13;5058959;28;20231;-71
2022/11/22 03:12:36;;;;;;;9.03;3.77;;;;;;;6.09;100.00;94436.97;5056681;28;20205;-71
2022/11/22 03:15:03;;;;;;;8.93;3.57;;;;;;;6.11;100.00;94440.22;5056820;28;20196;-72
2022/11/22 03:17:31;;;;;;;11.30;4.23;;;;;;;6.14;100.00;94438.00;5057260;28;20205;-72
2022/11/22 03:19:58;;;;;;;7.47;3.77;;;;;;;6.03;100.00;94437.72;5057270;28;20196;-72
2022/11/22 03:22:24;;;;;;;6.00;3.43;;;;;;;6.04;100.00;94432.31;5056432;28;20224;-71
2022/11/22 03:24:51;;;;;;;9.50;3.80;;;;;;;6.05;100.00;94436.53;5056915;28;20207;-72
2022/11/22 03:27:17;;;;;;;11.87;4.20;;;;;;;5.94;100.00;94451.16;5057356;28;20200;-71
2022/11/22 03:29:44;;;;;;;10.87;4.80;;;;;;;6.04;100.00;94451.63;5060882;28;20759;-71
2022/11/22 03:32:10;;;;;;;10.90;5.30;;;;;;;6.04;100.00;94445.38;5055135;28;20204;-70
2022/11/22 03:34:38;;;;;;;8.73;4.53;;;;;;;6.10;100.00;94447.22;5056519;28;21115;-71
2022/11/22 03:37:04;;;;;;;12.00;4.40;;;;;;;5.99;100.00;94446.16;5058251;28;20208;-71
2022/11/22 03:39:31;;;;;;;8.33;4.07;;;;;;;5.98;100.00;94457.63;5063003;28;20212;-70
2022/11/22 03:41:57;;;;;;;7.17;3.73;;;;;;;6.03;100.00;94452.63;5058761;28;20209;-72
2022/11/22 03:44:24;;;;;;;9.83;4.43;;;;;;;5.97;100.00;94448.16;5063443;28;20207;-71
2022/11/22 03:46:50;;;;;;;11.33;4.67;;;;;;;5.98;100.00;94452.38;5056744;28;20205;-70
2022/11/22 03:49:17;;;;;;;8.50;4.20;;;;;;;5.94;100.00;94448.53;5064393;28;20228;-71
2022/11/22 03:51:45;;;;;;;9.90;4.90;;;;;;;5.97;100.00;94448.16;5056785;28;20197;-70
2022/11/22 03:54:11;;;;;;;9.07;4.90;;;;;;;5.91;100.00;94446.31;5064433;28;20212;-70
2022/11/22 03:56:38;;;;;;;9.23;4.30;;;;;;;5.99;100.00;94446.16;5056911;28;20204;-72
2022/11/22 03:59:04;;;;;;;9.43;4.53;;;;;;;6.01;100.00;94446.75;5052860;28;20224;-70
2022/11/22 04:01:31;;;;;;;9.27;4.63;;;;;;;5.92;100.00;94450.53;5064876;28;20201;-72
2022/11/22 04:03:57;;;;;;;13.83;4.73;;;;;;;5.98;100.00;94449.78;5058982;28;20200;-73
2022/11/22 04:06:24;;;;;;;10.40;4.70;;;;;;;5.95;100.00;94444.94;5060888;28;20216;-71
2022/11/22 04:08:52;;;;;;;7.20;4.10;;;;;;;6.00;100.00;94434.72;5059876;28;20428;-72
2022/11/22 04:11:18;;;;;;;10.17;4.50;;;;;;;5.91;100.00;94430.66;5062869;28;20207;-71
2022/11/22 04:16:29;;;;;;;7.83;4.33;;;;;;;5.83;100.00;94426.38;5060082;28;20377;-71
2022/11/22 04:18:55;;;;;;;9.83;4.40;;;;;;;5.85;100.00;94424.34;5060300;28;20220;-72
2022/11/22 04:21:32;;;;;;;7.63;4.07;;;;;;;5.82;100.00;94423.97;5067943;28;20642;-70
2022/11/22 04:26:44;;;;;;;10.30;4.90;;;;;;;5.73;100.00;94418.03;5060693;28;20215;-71
2022/11/22 04:29:11;;;;;;;9.10;4.70;;;;;;;5.70;100.00;94418.44;5060086;28;20228;-71
2022/11/22 04:34:21;;;;;;;10.20;4.43;;;;;;;5.72;100.00;94418.22;5059743;28;20207;-71
2022/11/22 04:36:48;;;;;;;10.93;4.20;;;;;;;5.66;100.00;94418.97;5060189;28;20208;-71
2022/11/22 04:39:16;;;;;;;8.87;4.33;;;;;;;5.70;100.00;94415.81;5062440;28;20227;-71
2022/11/22 04:41:42;;;;;;;13.33;6.47;;;;;;;5.61;100.00;94421.34;5059732;28;20647;-70
2022/11/22 04:46:53;;;;;;;11.17;4.77;;;;;;;5.62;100.00;94420.38;5063599;28;20293;-72
2022/11/22 04:49:20;;;;;;;12.43;4.90;;;;;;;5.55;100.00;94427.38;5062582;28;21011;-71
2022/11/22 04:54:32;;;;;;;12.47;5.07;;;;;;;5.57;100.00;94425.34;5059159;28;20216;-70
2022/11/22 04:56:58;;;;;;;14.80;5.80;;;;;;;5.48;100.00;94429.09;5059822;28;20822;-72
2022/11/22 04:59:25;;;;;;;13.13;5.10;;;;;;;5.52;100.00;94427.72;5059648;28;20212;-71
2022/11/22 05:01:52;;;;;;;9.97;4.60;;;;;;;5.43;100.00;94441.91;5059607;28;20766;-71
2022/11/22 05:04:19;;;;;;;8.10;4.23;;;;;;;5.57;100.00;94443.63;5066231;28;20227;-71
2022/11/22 05:06:45;;;;;;;9.70;5.03;;;;;;;5.58;100.00;94442.66;5059728;28;20204;-71
2022/11/22 05:09:12;;;;;;;14.13;5.20;;;;;;;5.53;100.00;94445.03;5058969;28;20239;-70
2022/11/22 05:11:39;;;;;;;13.57;5.50;;;;;;;5.60;100.00;94456.31;5059948;28;20228;-71
2022/11/22 05:14:06;;;;;;;9.47;4.90;;;;;;;5.54;100.00;94459.69;5057873;28;21169;-71
2022/11/22 05:16:32;;;;;;;8.37;4.20;;;;;;;5.57;100.00;94461.91;5059353;28;20204;-70
2022/11/22 05:18:59;;;;;;;10.63;5.70;;;;;;;5.54;100.00;94467.53;5059631;28;20224;-71
2022/11/22 05:21:26;;;;;;;14.03;4.93;;;;;;;5.54;100.00;94475.38;5059572;28;20204;-72
2022/11/22 05:23:55;;;;;;;14.57;5.30;;;;;;;5.54;100.00;94478.78;5058578;28;20856;-70
2022/11/22 05:26:22;;;;;;;11.30;5.30;;;;;;;5.58;100.00;94474.78;5059405;28;20204;-70
2022/11/22 05:28:51;;;;;;;8.77;4.97;;;;;;;5.58;100.00;94474.00;5059067;28;20309;-71
2022/11/22 05:31:21;;;;;;;10.07;5.10;;;;;;;5.67;100.00;94470.25;5055051;28;20204;-72
2022/11/22 05:33:49;;;;;;;12.83;5.27;;;;;;;5.69;100.00;94466.44;5058430;28;21191;-71
2022/11/22 05:36:16;;;;;;;11.97;5.10;;;;;;;5.71;100.00;94466.25;5058954;28;20205;-72
2022/11/22 05:38:43;;;;;;;11.87;5.70;;;;;;;5.63;100.00;94471.63;5058984;28;20224;-70
2022/11/22 05:41:12;;;;;;;17.13;6.50;;;;;;;5.69;100.00;94470.84;5059203;28;20205;-71
2022/11/22 05:43:39;;;;;;;12.80;6.47;;;;;;;5.63;100.00;94482.06;5058613;28;20197;-71
2022/11/22 05:46:09;;;;;;;11.60;6.40;;;;;;;5.68;100.00;94483.13;5058592;28;21045;-71
2022/11/22 05:48:36;;;;;;;19.57;6.70;;;;;;;5.62;100.00;94485.69;5058024;28;20224;-72
2022/11/22 05:51:06;;;;;;;14.30;6.17;;;;;;;5.68;100.00;94490.94;5058665;28;20224;-72
2022/11/22 05:53:33;;;;;;;14.70;5.87;;;;;;;5.60;100.00;94503.34;5057959;28;20204;-71
2022/11/22 05:56:04;;;;;;;12.83;6.33;;;;;;;5.70;100.00;94509.03;5058413;28;20219;-70
2022/11/22 05:58:31;;;;;;;11.33;5.90;;;;;;;5.62;100.00;94506.56;5066366;28;20221;-71
2022/11/22 06:01:02;;;;;;;12.20;5.60;;;;;;;5.70;100.00;94514.28;5058701;28;20582;-71
2022/11/22 06:03:30;;;;;;;10.00;5.03;;;;;;;5.67;100.00;94510.22;5059925;28;20203;-71
2022/11/22 06:05:57;;;;;;;14.50;5.63;;;;;;;5.56;100.00;94507.31;5058156;28;20200;-71
2022/11/22 06:08:23;;;;;;;9.60;4.90;;;;;;;5.56;100.00;94505.53;5058622;28;20240;-71
2022/11/22 06:10:50;;;;;;;10.30;5.33;;;;;;;5.57;100.00;94503.72;5058446;28;20220;-72
2022/11/22 06:13:17;;;;;;;13.63;5.63;;;;;;;5.55;100.00;94505.72;5057695;28;20197;-70
2022/11/22 06:15:43;;;;;;;10.83;5.53;;;;;;;5.56;100.00;94505.53;5058137;28;20196;-70
2022/11/22 06:18:10;;;;;;;12.27;5.37;;;;;;;5.56;100.00;94509.94;5059398;28;20251;-70
2022/11/22 06:20:38;;;;;;;13.70;5.70;;;;;;;5.67;100.00;94512.03;5057855;28;20197;-70
2022/11/22 06:23:04;;;;;;;11.30;5.37;;;;;;;5.61;100.00;94515.41;5059504;28;20221;-71
2022/11/22 06:25:32;;;;;;;12.97;6.17;;;;;;;5.62;100.00;94512.59;5057376;28;20206;-70
2022/11/22 06:27:59;;;;;;;12.70;5.70;;;;;;;5.60;100.00;94513.78;5057983;28;20323;-70
2022/11/22 06:30:25;;;;;;;13.53;5.80;;;;;;;5.57;100.00;94525.41;5054486;28;20236;-70
2022/11/22 06:32:52;;;;;;;18.60;7.57;;;;;;;5.54;100.00;94525.81;5057179;28;20211;-71
2022/11/22 06:35:18;;;;;;;18.33;7.90;;;;;;;5.57;100.00;94535.06;5058413;28;20208;-70
2022/11/22 06:37:46;;;;;;;17.70;7.30;;;;;;;5.55;100.00;94529.25;5065309;28;20562;-70
2022/11/22 06:40:14;;;;;;;18.40;7.10;;;;;;;5.46;100.00;94540.81;5057463;28;20203;-71
2022/11/22 06:42:40;;;;;;;13.83;6.47;;;;;;;5.43;100.00;94549.00;5065990;28;20964;-71
2022/11/22 06:45:08;;;;;;;13.47;6.20;;;;;;;5.53;100.00;94555.53;5057909;28;20204;-71
2022/11/22 06:47:34;;;;;;;15.53;6.47;;;;;;;5.48;100.00;94564.91;5057143;28;20302;-71
2022/11/22 06:50:01;;;;;;;12.03;5.13;;;;;;;5.42;100.00;94563.03;5057491;28;20224;-70
2022/11/22 06:52:27;;;;;;;17.27;7.80;;;;;;;5.58;100.00;94573.25;5057494;28;20200;-71
2022/11/22 06:54:55;;;;;;;14.83;6.70;;;;;;;5.71;100.00;94568.16;5060426;28;20197;-71
2022/11/22 06:57:21;;;;;;;34.13;11.33;;;;;;;5.67;100.00;94577.38;5057454;28;20204;-72
2022/11/22 06:59:48;;;;;;;20.77;9.37;;;;;;;5.67;100.00;94587.81;5059833;28;20223;-71
2022/11/22 07:02:15;;;;;;;22.37;8.17;;;;;;;5.65;100.00;94589.78;5064725;28;20283;-71
2022/11/22 07:04:41;;;;;;;21.63;8.20;;;;;;;5.75;100.00;94580.66;5065314;28;20227;-71
2022/11/22 07:07:08;;;;;;;12.80;6.57;;;;;;;5.71;100.00;94594.28;5065341;28;20783;-71
2022/11/22 07:09:34;;;;;;;16.17;6.80;;;;;;;5.82;100.00;94599.03;5065570;28;20704;-71
2022/11/22 07:12:03;;;;;;;14.43;5.97;;;;;;;5.93;100.00;94603.75;5060131;28;20200;-72
2022/11/22 07:14:30;;;;;;;16.93;6.63;;;;;;;5.86;100.00;94605.50;5056751;28;20196;-71
2022/11/22 07:16:56;;;;;;;15.87;6.57;;;;;;;5.96;100.00;94609.41;5056663;28;20219;-71
2022/11/22 07:19:23;;;;;;;14.00;6.10;;;;;;;5.90;100.00;94606.75;5057006;28;20216;-72
2022/11/22 07:21:49;;;;;;;17.43;6.50;;;;;;;6.00;100.00;94608.03;5065404;28;20212;-71
2022/11/22 07:24:16;;;;;;;14.47;6.10;;;;;;;6.07;100.00;94611.50;5056020;28;20311;-71
2022/11/22 07:26:43;;;;;;;11.10;5.37;;;;;;;6.18;100.00;94618.84;5064979;28;20200;-72
2022/11/22 07:29:11;;;;;;;13.20;5.50;;;;;;;6.21;100.00;94619.28;5061454;28;20668;-72
2022/11/22 07:31:37;;;;;;;12.47;5.40;;;;;;;6.30;100.00;94620.75;5057100;28;20201;-71
2022/11/22 07:34:04;;;;;;;13.53;6.07;;;;;;;6.26;100.00;94611.69;5053445;28;20205;-72
2022/11/22 07:36:31;;;;;;;12.80;4.90;;;;;;;6.31;100.00;94609.31;5056626;28;20208;-71
2022/11/22 07:38:57;;;;;;;14.17;5.07;;;;;;;6.32;100.00;94616.13;5056693;28;20598;-72
2022/11/22 07:41:24;;;;;;;12.87;5.37;;;;;;;6.35;100.00;94625.41;5056717;28;20211;-72
2022/11/22 07:43:51;;;;;;;11.73;5.30;;;;;;;6.26;100.00;94629.16;5058764;28;20560;-72
2022/11/22 07:46:23;;;;;;;10.43;4.13;;;;;;;6.46;100.00;94627.50;5057043;28;20200;-71
2022/11/22 07:48:50;;;;;;;13.07;5.43;;;;;;;6.44;100.00;94630.31;5062246;28;21143;-71
2022/11/22 07:51:17;;;;;;;11.77;5.10;;;;;;;6.46;100.00;94628.31;5056891;28;20231;-71
2022/11/22 07:53:44;;;;;;;8.80;4.87;;;;;;;6.42;100.00;94632.31;5056442;28;20211;-72
2022/11/22 07:56:10;;;;;;;12.07;5.43;;;;;;;6.54;100.00;94630.78;5057704;28;20204;-71
2022/11/22 07:58:37;;;;;;;10.33;5.50;;;;;;;6.61;100.00;94633.47;5056402;28;20369;-71
2022/11/22 08:01:06;;;;;;;15.30;5.73;;;;;;;6.59;100.00;94628.38;5063793;28;20204;-73
2022/11/22 08:03:34;;;;;;;11.83;4.60;;;;;;;6.64;100.00;94633.84;5060431;28;20919;-72
2022/11/22 08:06:01;;;;;;;12.37;5.30;;;;;;;6.68;100.00;94637.72;5056100;28;20200;-70
2022/11/22 08:08:27;;;;;;;14.33;5.17;;;;;;;6.71;100.00;94634.72;5060625;28;20213;-71
2022/11/22 08:10:54;;;;;;;9.63;5.27;;;;;;;6.75;100.00;94636.75;5064658;28;20216;-73
2022/11/22 08:13:21;;;;;;;18.43;5.57;;;;;;;6.80;100.00;94631.75;5065631;28;20891;-70
2022/11/22 08:15:48;;;;;;;18.37;5.93;;;;;;;6.85;100.00;94633.81;5063414;28;20209;-70
2022/11/22 08:18:15;;;;;;;16.47;5.43;;;;;;;6.79;100.00;94634.56;5065734;28;20227;-72
2022/11/22 08:20:43;;;;;;;10.27;4.73;;;;;;;6.93;100.00;94636.25;5064559;28;20195;-71
2022/11/22 08:23:09;;;;;;;10.40;5.30;;;;;;;6.96;100.00;94644.53;5060292;28;20671;-71
2022/11/22 08:25:36;;;;;;;10.50;5.03;;;;;;;6.96;100.00;94646.34;5056659;28;20208;-71
2022/11/22 08:28:03;;;;;;;8.30;4.53;;;;;;;6.90;100.00;94644.50;5063153;28;20220;-71
2022/11/22 08:30:29;;;;;;;10.93;4.67;;;;;;;6.94;100.00;94648.34;5059704;28;20216;-71
2022/11/22 08:32:56;;;;;;;9.87;4.33;;;;;;;7.04;100.00;94643.53;5061490;28;20548;-71
2022/11/22 08:35:23;;;;;;;9.07;4.50;;;;;;;7.11;100.00;94647.03;5061990;28;20700;-71
2022/11/22 08:37:55;;;;;;;14.40;5.20;;;;;;;7.14;100.00;94649.25;5062246;28;20224;-71
2022/11/22 08:40:21;;;;;;;10.47;4.40;;;;;;;7.06;100.00;94641.56;5064790;28;20204;-72
2022/11/22 08:42:48;;;;;;;11.03;4.23;;;;;;;7.09;100.00;94641.16;5060831;28;20208;-71
2022/11/22 08:45:15;;;;;;;11.77;4.67;;;;;;;7.15;100.00;94646.41;5062545;28;20692;-71
2022/11/22 08:47:41;;;;;;;8.97;4.17;;;;;;;7.22;100.00;94635.97;5064602;28;20226;-71
2022/11/22 08:50:09;;;;;;;16.27;5.33;;;;;;;7.31;100.00;94641.66;5065540;28;20232;-71
2022/11/22 08:52:35;;;;;;;11.27;4.60;;;;;;;7.30;100.00;94639.25;5065510;28;20691;-71
2022/11/22 08:55:03;;;;;;;15.47;5.67;;;;;;;7.44;100.00;94636.47;5067217;28;20196;-71
2022/11/22 08:57:30;;;;;;;8.63;4.37;;;;;;;7.11;100.00;94639.97;5068290;28;20208;-71
2022/11/22 08:59:56;;;;;;;12.03;5.13;;;;;;;7.36;100.00;94644.50;5066119;28;20315;-71
2022/11/22 09:02:23;;;;;;;8.87;5.07;;;;;;;7.32;100.00;94648.53;5065801;28;20200;-71
2022/11/22 09:04:49;;;;;;;16.43;5.60;;;;;;;7.49;100.00;94643.75;5070804;28;20219;-71
2022/11/22 09:07:16;;;;;;;9.37;4.43;;;;;;;7.57;100.00;94651.44;5066104;28;20235;-71
2022/11/22 09:09:42;;;;;;;10.00;4.93;;;;;;;7.53;100.00;94655.47;5066662;28;20704;-71
2022/11/22 09:12:10;;;;;;;10.83;4.47;;;;;;;7.74;100.00;94661.38;5066147;28;20208;-72
2022/11/22 09:14:37;;;;;;;13.43;4.73;;;;;;;7.64;100.00;94655.69;5065902;28;20203;-71
2022/11/22 09:17:04;;;;;;;9.43;4.60;;;;;;;7.52;100.00;94664.31;5068764;28;20567;-71
2022/11/22 09:19:31;;;;;;;11.87;4.93;;;;;;;7.68;100.00;94674.47;5067018;28;20227;-71
2022/11/22 09:21:57;;;;;;;18.03;4.67;;;;;;;7.74;100.00;94684.16;5065780;28;20188;-72
2022/11/22 09:24:24;;;;;;;9.43;4.07;;;;;;;7.83;100.00;94673.28;5060566;28;20201;-71
2022/11/22 09:26:50;;;;;;;12.07;4.03;;;;;;;7.81;100.00;94670.06;5061796;28;20200;-70
2022/11/22 09:29:18;;;;;;;26.90;9.50;;;;;;;7.89;100.00;94675.94;5067246;28;20227;-71
2022/11/22 09:31:45;;;;;;;12.53;5.90;;;;;;;7.82;100.00;94687.41;5058932;28;20233;-70
2022/11/22 09:34:11;;;;;;;11.27;4.00;;;;;;;7.77;100.00;94687.19;5055020;28;20209;-70
2022/11/22 09:36:38;;;;;;;13.13;4.60;;;;;;;7.72;100.00;94694.84;5059418;28;20216;-70
2022/11/22 09:39:04;;;;;;;11.10;4.67;;;;;;;7.71;100.00;94695.84;5063327;28;20220;-70
2022/11/22 09:41:59;;;;;;;10.50;5.40;;;;;;;7.98;100.00;94698.34;5059122;28;20207;-71
2022/11/22 09:44:37;;;;;;;12.00;4.23;;;;;;;7.84;100.00;94706.38;5050957;28;20213;-70
2022/11/22 09:47:12;;;;;;;14.10;4.13;;;;;;;7.80;100.00;94710.38;5063543;28;20214;-70
2022/11/22 09:49:53;;;;;;;10.10;4.27;;;;;;;7.77;100.00;94716.03;5066183;28;20219;-70
2022/11/22 09:52:25;;;;;;;8.37;4.43;;;;;;;7.87;100.00;94721.72;5064646;28;20632;-69
2022/11/22 09:54:55;;;;;;;15.33;5.03;;;;;;;7.88;100.00;94728.59;5058627;28;20205;-69
2022/11/22 09:57:28;;;;;;;8.63;4.77;;;;;;;7.94;100.00;94728.59;5065638;28;20230;-70
2022/11/22 10:00:02;;;;;;;18.03;5.63;;;;;;;8.13;100.00;94729.66;5066997;28;20672;-70
2022/11/22 10:02:35;;;;;;;16.13;6.50;;;;;;;8.03;100.00;94726.59;5065854;28;20200;-70
2022/11/22 10:05:05;;;;;;;12.73;4.97;;;;;;;8.15;100.00;94736.34;5061708;28;20212;-70
2022/11/22 10:07:37;;;;;;;7.73;4.00;;;;;;;7.91;100.00;94730.81;5070451;28;20203;-70
2022/11/22 10:10:10;;;;;;;13.33;4.60;;;;;;;7.89;100.00;94738.03;5061311;28;20200;-70
2022/11/22 10:12:44;;;;;;;23.50;8.20;;;;;;;7.94;100.00;94733.03;5065551;28;20289;-72
2022/11/22 10:15:24;;;;;;;8.67;4.40;;;;;;;7.93;100.00;94737.47;5062341;28;20592;-70
2022/11/22 10:17:53;;;;;;;6.63;3.53;;;;;;;7.92;100.00;94740.28;5066605;28;20917;-70
2022/11/22 10:20:21;;;;;;;8.33;3.50;;;;;;;7.91;100.00;94728.19;5065552;28;20208;-70
2022/11/22 10:22:48;;;;;;;8.43;3.83;;;;;;;7.94;100.00;94744.34;5063623;28;20211;-70
2022/11/22 10:25:18;;;;;;;10.57;3.90;;;;;;;8.04;100.00;94741.31;5065199;28;21196;-70
2022/11/22 10:27:48;;;;;;;5.80;2.23;;;;;;;8.08;100.00;94739.91;5063108;28;20208;-70
2022/11/22 10:30:19;;;;;;;9.00;2.67;;;;;;;8.11;100.00;94739.53;5057645;28;20282;-70
2022/11/22 10:32:57;;;;;;;13.00;2.57;;;;;;;8.17;100.00;94738.75;5057246;28;20196;-70
2022/11/22 10:35:40;;;;;;;9.80;3.50;;;;;;;8.22;100.00;94755.56;5066506;28;20207;-70
2022/11/22 10:38:29;;;;;;;10.03;3.40;;;;;;;8.01;100.00;94754.84;5066453;28;20225;-70
2022/11/22 10:41:08;;;;;;;9.90;3.23;;;;;;;8.14;100.00;94754.91;5064644;28;20198;-70
2022/11/22 10:43:44;;;;;;;7.13;3.20;;;;;;;8.13;100.00;94750.63;5061758;28;20567;-70
2022/11/22 10:46:19;;;;;;;7.10;2.67;;;;;;;8.09;100.00;94746.78;5064347;28;20206;-71
2022/11/22 10:48:52;;;;;;;11.40;2.80;;;;;;;8.12;100.00;94741.97;5066590;28;20238;-70
2022/11/22 10:51:27;;;;;;;8.17;2.53;;;;;;;8.18;100.00;94743.81;5061689;28;20647;-70
2022/11/22 10:54:07;;;;;;;8.83;3.10;;;;;;;8.17;100.00;94738.75;5056809;28;20210;-70
2022/11/22 10:56:41;;;;;;;11.20;2.80;;;;;;;8.18;100.00;94737.75;5062119;28;20210;-70
2022/11/22 10:59:29;;;;;;;6.53;2.53;;;;;;;8.20;100.00;94733.13;5062123;28;20224;-70
2022/11/22 11:02:03;;;;;;;7.70;2.50;;;;;;;8.14;100.00;94747.03;5064433;28;20188;-70
2022/11/22 11:04:32;;;;;;;6.70;2.80;;;;;;;8.32;100.00;94726.28;5060001;28;20641;-70
2022/11/22 11:07:01;;;;;;;13.67;3.00;;;;;;;8.36;100.00;94736.16;5061970;28;20208;-71
2022/11/22 11:09:35;;;;;;;10.67;2.77;;;;;;;8.30;100.00;94733.53;5063334;28;20896;-71
2022/11/22 11:12:05;;;;;;;10.07;2.17;;;;;;;8.39;100.00;94740.22;5060888;28;20593;-70
2022/11/22 11:14:36;;;;;;;6.53;2.77;;;;;;;8.31;100.00;94729.91;5063487;28;20661;-71
2022/11/22 11:17:05;;;;;;;6.43;2.27;;;;;;;8.34;100.00;94722.47;5061938;28;20201;-70
2022/11/22 11:19:38;;;;;;;4.77;2.27;;;;;;;8.54;100.00;94724.09;5072945;28;20601;-70
2022/11/22 11:22:16;;;;;;;6.23;2.20;;;;;;;8.44;100.00;94720.25;5059070;28;20791;-70
2022/11/22 11:24:43;;;;;;;9.57;2.63;;;;;;;8.31;100.00;94724.66;5063206;28;20206;-70
2022/11/22 11:27:13;;;;;;;7.87;2.53;;;;;;;8.42;100.00;94708.34;5056040;28;20204;-70
2022/11/22 11:29:43;;;;;;;5.30;2.07;;;;;;;8.47;100.00;94709.34;5063495;28;21021;-70
2022/11/22 11:32:13;;;;;;;5.73;2.63;;;;;;;8.47;100.00;94703.31;5063173;28;20229;-70
2022/11/22 11:34:50;;;;;;;13.30;2.10;;;;;;;8.30;100.00;94705.50;5065951;28;20207;-71
2022/11/22 11:37:23;;;;;;;5.53;1.97;;;;;;;8.37;100.00;94687.13;5057621;28;20297;-70
2022/11/22 11:39:50;;;;;;;6.63;1.73;;;;;;;8.52;100.00;94686.72;5064920;28;20220;-70
2022/11/22 11:42:29;;;;;;;1.63;1.10;;;;;;;8.54;100.00;94692.59;5059051;28;20196;-70
2022/11/22 11:45:20;;;;;;;4.40;1.80;;;;;;;8.66;100.00;94693.59;5059292;28;20204;-71
2022/11/22 11:47:48;;;;;;;6.63;1.50;;;;;;;8.44;100.00;94691.38;5061272;28;20205;-70
2022/11/22 11:50:20;;;;;;;11.20;2.93;;;;;;;8.65;100.00;94683.31;5057763;28;20204;-71